Aérodrome :
LOGIN :

S'inscrire | Disclaimer

   EN    FR    IT 

 










Légende :    VFR   VFR Marginal   IFR   IFR Intensif   IFR Très Intensif
Visi : 
Plafond : 
>= 8 km
>= 3000ft
5 à 8 km
1000 à 3000 ft
1500m à 5 km
500 à 1000 ft
800 à 1500m
200 à 500 ft
< 800m
< 200 ft
Symboles :   Orages  Brouillard  Fortes neiges  Fortes précipitations  Vent > 20 kt
SIGMETs :   Divers  Orages  Givrage  Turbulence  Onde Orograph.  Cendres Volcan.







- Altitude de l'aérodrome : 458 ft
- Voir les cartes d'approche


LFSI - St-Dizier

DERNIER METAR :
  • 221800Z AUTO 12003KT CAVOK 15/10 Q1019

METARs EXPIRÉS :
  • 221730Z AUTO 00000KT CAVOK 16/09 Q1020
  • 221700Z AUTO 17001KT 9999 ///TCU 17/07 Q1019
  • 221630Z AUTO 23002KT CAVOK 17/07 Q1020
  • 221600Z AUTO 25007KT 220V280 CAVOK 18/07 Q1020
  • 221530Z AUTO 24007KT 200V270 CAVOK 18/07 Q1021

TAF AMD TAF LFSI
Valide du 22 à 15h jusqu'au 23 à 15h UTC


221410Z 2215/2315 24008KT CAVOK
TEMPO 2215/2304 4000 RA
BECMG 2302/2306 21012G25KT BKN014
TEMPO 2313/2315 4000 SHRA BKN020TCU
Pas de NOTAMs connus pour ce terrain.
1 SIGMET publié pour la FIR Paris (LFFF) :
 
Turbulence forte
LFFF SIGMET 2 VALID 221600/222000 LFPW
LFFF PARIS FIR/UIR SEV TURB FCST WI N4815 W00015 - N4915 W00015 - N4915 E00000 - N4815 E00000 - N4815 W00015 SFC/FL060 MOV E 15KT WKN=



MET'MAP, la Météo Aéronautique d'un coup d'oeil ! - Copyright ORBIFLY Décembre 2007 - Disclaimer

ORBIFLY MET'MAP TEAM :

Programmation & Développement : Alexandra Zaïnal
Conception & Développement : Baudouin d'Aumeries
Co-Programmation & Développement : Marc-Olivier Méhu
Soutien technique & logistique : Manuel Goepfert

Contact : metmap@orbifly.com




SOURCES & CREDITS :

   NOAA